Evansville, Vermont
Current Conditions -  °F | °C
As of 12:55 PM on Sunday 21 Dec 2014 (Local Time) from KEFK Reporting Station
Haze Haze  
Wind Chill: 14°   Ceiling: 2800
Heat Index: 14°   Visibility: 5mi
Dew Point: 12°   Wind: 0mph
Humidity: 91%   Direction: NA
Pressure: 30.3"   Gusts: NA
Location:  44.7955°N, 72.0983°W
Report Text: KEFK 211755Z AUTO 00000KT 5SM BR OVC028 M10/M11 A3030 RMK AO2 T10991111 11099 21170
Loading
Personal Weather Stations






























Interactive Weather Map New forecast layout! Learn more

10-Day Weather Forecast

Advertisements
Track Severe Weather on mobile